Time;durP1;ratioP1;P1;durP2;ratioP2;P2;SDS_P1;SDS_P2;PMS_P1;PMS_P2;Temp;Humidity;BMP_temperature;BMP_pressure;BME280_temperature;BME280_humidity;BME280_pressure;Samples;Min_cycle;Max_cycle;Signal;HPM_P1;HPM_P2
2024/01/05 00:01:26;;;;;;;35.80;21.70;;;;;;;11.87;87.75;99190.20;108107;1284;21994;-61
2024/01/05 00:03:51;;;;;;;34.70;21.50;;;;;;;11.88;87.75;99191.77;108077;1285;21986;-61
2024/01/05 00:06:17;;;;;;;30.90;18.10;;;;;;;11.88;87.82;99195.80;108040;1274;21992;-61
2024/01/05 00:08:43;;;;;;;34.00;21.20;;;;;;;11.89;87.56;99197.17;108051;1285;21974;-66
2024/01/05 00:11:08;;;;;;;43.30;23.40;;;;;;;11.88;87.39;99195.95;108033;1285;21986;-61
2024/01/05 00:13:34;;;;;;;34.90;21.40;;;;;;;11.87;87.34;99199.68;108050;1285;21958;-61
2024/01/05 00:15:59;;;;;;;33.20;21.20;;;;;;;11.86;87.26;99200.27;107999;1284;22027;-61
2024/01/05 00:18:25;;;;;;;35.30;22.10;;;;;;;11.87;86.97;99199.88;108028;1277;23055;-61
2024/01/05 00:20:50;;;;;;;28.00;17.50;;;;;;;11.87;86.77;99201.61;108026;1285;21986;-66
2024/01/05 00:23:16;;;;;;;20.80;14.30;;;;;;;11.86;86.75;99205.69;108194;1285;21989;-61
2024/01/05 00:25:42;;;;;;;23.60;15.40;;;;;;;11.86;86.74;99207.64;108296;1284;21983;-61
2024/01/05 00:28:07;;;;;;;19.70;12.00;;;;;;;11.85;86.74;99209.09;108043;1285;21992;-63
2024/01/05 00:30:34;;;;;;;19.40;13.10;;;;;;;11.83;86.98;99214.60;108061;1284;21992;-65
2024/01/05 00:33:00;;;;;;;19.70;13.00;;;;;;;11.82;87.06;99213.40;108113;1281;21977;-65
2024/01/05 00:35:26;;;;;;;18.10;13.20;;;;;;;11.81;87.04;99214.67;108052;1274;21988;-65
2024/01/05 00:37:51;;;;;;;17.30;12.40;;;;;;;11.81;86.79;99216.42;108045;1285;21978;-65
2024/01/05 00:40:17;;;;;;;18.60;12.20;;;;;;;11.79;86.60;99220.54;108054;1280;21994;-62
2024/01/05 00:42:43;;;;;;;20.80;13.30;;;;;;;11.76;86.40;99222.58;108092;1285;22017;-61
2024/01/05 00:45:09;;;;;;;22.00;12.90;;;;;;;11.72;86.38;99223.76;108182;1284;22716;-65
2024/01/05 00:47:35;;;;;;;19.90;12.90;;;;;;;11.69;86.20;99225.13;108163;1283;23733;-61
2024/01/05 00:50:01;;;;;;;26.00;15.70;;;;;;;11.66;85.99;99229.98;107973;1285;156937;-61
2024/01/05 00:52:26;;;;;;;25.10;15.00;;;;;;;11.62;85.82;99236.95;108161;1285;24305;-65
2024/01/05 00:54:55;;;;;;;20.80;13.70;;;;;;;11.55;85.68;99238.59;108289;1281;22026;-65
2024/01/05 00:57:20;;;;;;;23.50;15.60;;;;;;;11.48;85.47;99241.46;108059;1285;21992;-61
2024/01/05 00:59:46;;;;;;;23.10;14.70;;;;;;;11.40;85.36;99241.92;108055;1285;21984;-61
2024/01/05 01:02:12;;;;;;;18.90;12.90;;;;;;;11.32;85.05;99244.48;108094;1285;22025;-64
2024/01/05 01:04:37;;;;;;;17.10;11.40;;;;;;;11.26;84.74;99253.64;108020;1286;21986;-61
2024/01/05 01:07:03;;;;;;;16.60;11.30;;;;;;;11.19;84.51;99257.73;108090;1286;21986;-61
2024/01/05 01:09:29;;;;;;;16.40;10.60;;;;;;;11.12;84.39;99262.67;108097;1275;22008;-64
2024/01/05 01:11:55;;;;;;;15.10;10.00;;;;;;;11.02;84.16;99267.73;108125;1286;21995;-65
2024/01/05 01:14:21;;;;;;;16.10;10.20;;;;;;;10.92;84.21;99268.05;108058;1285;21995;-61
2024/01/05 01:16:46;;;;;;;19.50;11.50;;;;;;;10.84;84.10;99272.52;108074;1273;21992;-65
2024/01/05 01:19:12;;;;;;;18.60;10.80;;;;;;;10.77;84.13;99276.05;108053;1274;21977;-60
2024/01/05 01:21:37;;;;;;;16.00;10.00;;;;;;;10.70;84.41;99278.72;108042;1285;21986;-61
2024/01/05 01:24:03;;;;;;;17.70;10.30;;;;;;;10.65;84.64;99275.38;108213;1285;21988;-66
2024/01/05 01:26:30;;;;;;;16.10;10.90;;;;;;;10.61;84.49;99278.30;108197;1285;21990;-61
2024/01/05 01:28:55;;;;;;;17.00;11.50;;;;;;;10.56;84.51;99283.88;108156;1286;22629;-61
2024/01/05 01:31:21;;;;;;;15.40;10.10;;;;;;;10.52;84.40;99285.39;108148;1280;21987;-66
2024/01/05 01:33:47;;;;;;;16.00;10.40;;;;;;;10.50;84.17;99286.86;108224;1286;21975;-66
2024/01/05 01:36:12;;;;;;;17.40;10.80;;;;;;;10.46;83.97;99287.67;108100;1286;21981;-65
2024/01/05 01:38:38;;;;;;;14.10;9.60;;;;;;;10.43;83.77;99290.23;108092;1286;21986;-61
2024/01/05 01:41:04;;;;;;;16.60;10.50;;;;;;;10.39;83.70;99288.05;108146;1281;22222;-66
2024/01/05 01:43:29;;;;;;;21.20;10.40;;;;;;;10.35;83.62;99283.58;108092;1286;21989;-60
2024/01/05 01:45:56;;;;;;;18.30;11.60;;;;;;;10.33;83.81;99287.50;108076;1286;21985;-65
2024/01/05 01:48:21;;;;;;;16.60;10.90;;;;;;;10.31;83.95;99290.38;108157;1286;22009;-63
2024/01/05 01:50:47;;;;;;;17.90;11.20;;;;;;;10.29;84.15;99290.94;108069;1284;21994;-66
2024/01/05 01:53:13;;;;;;;17.40;10.50;;;;;;;10.30;84.21;99290.23;108201;1286;21997;-61
2024/01/05 01:55:40;;;;;;;31.60;11.60;;;;;;;10.29;84.18;99284.98;108299;1274;21989;-61
2024/01/05 01:58:06;;;;;;;17.40;11.00;;;;;;;10.27;83.83;99285.20;108142;1286;21991;-66
2024/01/05 02:00:32;;;;;;;21.00;11.50;;;;;;;10.26;83.69;99292.95;108305;1286;22021;-61
2024/01/05 02:02:57;;;;;;;21.60;10.90;;;;;;;10.24;83.86;99296.69;108238;1280;21984;-62
2024/01/05 02:05:23;;;;;;;22.30;10.70;;;;;;;10.22;83.74;99294.48;108108;1286;21989;-61
2024/01/05 02:07:48;;;;;;;15.60;10.20;;;;;;;10.20;83.75;99295.92;108180;1277;21980;-60
2024/01/05 02:10:14;;;;;;;16.40;9.60;;;;;;;10.16;84.27;99291.82;108175;1277;21986;-65
2024/01/05 02:12:42;;;;;;;15.70;9.30;;;;;;;10.12;84.52;99292.62;108139;1286;21988;-66
2024/01/05 02:15:08;;;;;;;17.10;10.20;;;;;;;10.10;84.64;99300.40;108357;1286;21991;-62
2024/01/05 02:17:34;;;;;;;14.90;9.60;;;;;;;10.08;84.63;99301.34;108318;1278;21986;-64
2024/01/05 02:19:59;;;;;;;16.60;8.70;;;;;;;10.08;83.88;99301.17;108140;1281;21989;-66
2024/01/05 02:22:29;;;;;;;17.40;9.90;;;;;;;10.05;83.76;99306.48;108166;1286;22532;-66
2024/01/05 02:24:58;;;;;;;16.00;9.40;;;;;;;10.02;84.17;99314.29;108321;1284;21973;-66
2024/01/05 02:27:23;;;;;;;16.40;10.50;;;;;;;9.98;84.42;99323.50;108099;1281;23609;-62
2024/01/05 02:29:49;;;;;;;14.70;9.50;;;;;;;9.96;84.21;99327.77;108146;1286;21974;-61
2024/01/05 02:32:15;;;;;;;15.60;10.70;;;;;;;9.95;84.03;99332.00;108168;1278;22454;-66
2024/01/05 02:34:41;;;;;;;16.00;9.80;;;;;;;9.94;84.04;99333.42;108180;1286;21981;-64
2024/01/05 02:37:06;;;;;;;15.30;9.00;;;;;;;9.94;84.34;99334.83;108091;1280;21986;-66
2024/01/05 02:39:32;;;;;;;14.70;9.00;;;;;;;9.95;84.34;99337.42;108111;1284;21990;-66
2024/01/05 02:41:57;;;;;;;15.10;9.00;;;;;;;9.95;84.27;99338.30;108167;1278;21984;-65
2024/01/05 02:44:23;;;;;;;14.00;8.80;;;;;;;9.95;84.17;99344.60;108279;1273;21984;-66
2024/01/05 02:46:48;;;;;;;14.10;8.30;;;;;;;9.95;83.87;99350.41;108308;1286;22267;-66
2024/01/05 02:49:14;;;;;;;14.50;8.90;;;;;;;9.94;83.62;99352.02;108257;1286;21988;-61
2024/01/05 02:51:39;;;;;;;14.60;8.50;;;;;;;9.93;83.67;99352.39;108279;1274;21995;-62
2024/01/05 02:54:05;;;;;;;17.40;9.70;;;;;;;9.91;83.59;99352.96;108311;1281;21984;-66
2024/01/05 02:56:33;;;;;;;15.10;9.40;;;;;;;9.90;83.21;99353.52;108235;1286;23624;-66
2024/01/05 02:58:59;;;;;;;14.50;8.60;;;;;;;9.86;83.22;99356.41;108284;1275;21986;-65
2024/01/05 03:01:25;;;;;;;15.80;8.60;;;;;;;9.81;82.99;99359.88;108310;1273;22018;-66
2024/01/05 03:03:50;;;;;;;13.70;8.40;;;;;;;9.76;82.84;99365.25;108295;1286;21985;-61
2024/01/05 03:06:16;;;;;;;14.10;9.60;;;;;;;9.73;82.83;99373.73;108167;1286;22026;-65
2024/01/05 03:08:43;;;;;;;15.00;9.00;;;;;;;9.71;83.03;99379.76;108320;1286;21996;-63
2024/01/05 03:11:09;;;;;;;14.80;8.90;;;;;;;9.69;83.01;99379.98;108285;1280;21991;-61
2024/01/05 03:13:34;;;;;;;14.10;8.80;;;;;;;9.66;82.85;99385.98;108244;1286;21987;-65
2024/01/05 03:16:00;;;;;;;13.70;8.30;;;;;;;9.63;82.87;99389.73;108183;1286;22003;-66
2024/01/05 03:18:26;;;;;;;14.40;8.40;;;;;;;9.60;82.84;99396.11;107536;1281;1002472;-61
2024/01/05 03:20:52;;;;;;;13.90;8.90;;;;;;;9.59;82.81;99396.52;108254;1286;21992;-66
2024/01/05 03:23:17;;;;;;;14.80;8.70;;;;;;;9.55;83.10;99399.05;108269;1286;22002;-66
2024/01/05 03:25:44;;;;;;;14.10;9.30;;;;;;;9.55;83.10;99401.50;108140;1284;21988;-61
2024/01/05 03:28:10;;;;;;;14.30;8.20;;;;;;;9.55;83.33;99405.52;108270;1274;21985;-61
2024/01/05 03:30:41;;;;;;;12.80;8.40;;;;;;;9.58;83.50;99404.59;108298;1274;21991;-65
2024/01/05 03:33:06;;;;;;;14.30;8.20;;;;;;;9.62;84.00;99412.54;108144;1278;21985;-61
2024/01/05 03:35:32;;;;;;;13.50;8.50;;;;;;;9.68;84.38;99418.54;108290;1286;21983;-65
2024/01/05 03:37:57;;;;;;;13.70;8.60;;;;;;;9.75;84.52;99420.82;108161;1280;21981;-64
2024/01/05 03:40:23;;;;;;;13.90;8.30;;;;;;;9.80;84.78;99413.68;108317;1286;21989;-61
2024/01/05 03:42:49;;;;;;;14.00;7.70;;;;;;;9.82;84.95;99412.23;107321;1286;1002511;-66
2024/01/05 03:45:14;;;;;;;15.50;8.40;;;;;;;9.85;85.00;99407.96;108175;1280;22027;-66
2024/01/05 03:47:40;;;;;;;15.40;8.60;;;;;;;9.88;84.74;99408.58;108335;1286;22025;-66
2024/01/05 03:50:06;;;;;;;15.20;9.00;;;;;;;9.95;84.29;99414.36;108197;1273;21986;-61
2024/01/05 03:52:32;;;;;;;15.60;8.90;;;;;;;9.98;83.90;99417.44;108278;1286;22458;-62
2024/01/05 03:54:58;;;;;;;15.30;8.80;;;;;;;9.99;84.26;99420.21;108307;1286;22046;-65
2024/01/05 03:57:23;;;;;;;15.20;8.70;;;;;;;10.00;84.69;99422.84;108178;1286;22040;-65
2024/01/05 03:59:52;;;;;;;15.20;8.50;;;;;;;10.02;84.30;99422.44;108172;1284;21988;-66
2024/01/05 04:02:18;;;;;;;15.30;8.50;;;;;;;10.01;84.27;99424.75;108163;1278;21995;-65
2024/01/05 04:04:43;;;;;;;16.50;8.20;;;;;;;9.96;84.37;99425.55;108090;1281;21990;-65
2024/01/05 04:07:09;;;;;;;13.90;8.90;;;;;;;9.95;84.17;99423.30;108123;1285;21985;-65
2024/01/05 04:09:34;;;;;;;13.90;7.80;;;;;;;9.94;83.88;99429.63;108046;1280;21988;-60
2024/01/05 04:12:00;;;;;;;11.40;7.00;;;;;;;9.90;83.69;99442.88;108076;1285;22167;-65
2024/01/05 04:14:25;;;;;;;13.00;7.50;;;;;;;9.84;83.32;99457.39;108108;1281;21989;-60
2024/01/05 04:16:51;;;;;;;13.70;8.00;;;;;;;9.78;83.16;99463.30;108266;1286;21996;-60
2024/01/05 04:19:17;;;;;;;13.40;7.70;;;;;;;9.73;83.07;99465.02;108124;1286;22046;-60
2024/01/05 04:21:42;;;;;;;14.40;7.70;;;;;;;9.69;82.98;99473.70;108064;1285;21986;-60
2024/01/05 04:24:08;;;;;;;13.40;7.80;;;;;;;9.67;82.80;99474.95;108110;1284;21989;-65
2024/01/05 04:26:34;;;;;;;12.40;7.70;;;;;;;9.69;82.48;99481.39;108275;1285;21986;-60
2024/01/05 04:29:00;;;;;;;14.00;7.70;;;;;;;9.67;82.50;99483.20;108278;1285;21991;-60
2024/01/05 04:31:26;;;;;;;13.30;8.00;;;;;;;9.65;82.30;99487.09;108141;1285;21992;-62
2024/01/05 04:33:52;;;;;;;12.60;7.70;;;;;;;9.62;82.09;99491.00;108090;1274;22286;-60
2024/01/05 04:36:18;;;;;;;12.40;8.00;;;;;;;9.58;82.05;99497.39;108041;1281;21974;-60
2024/01/05 04:38:44;;;;;;;14.60;7.70;;;;;;;9.54;81.83;99497.48;108018;1286;21990;-65
2024/01/05 04:41:11;;;;;;;14.30;8.50;;;;;;;9.50;81.71;99499.67;108022;1278;23096;-66
2024/01/05 04:43:36;;;;;;;13.10;7.90;;;;;;;9.46;81.74;99499.42;108057;1277;23413;-60
2024/01/05 04:46:02;;;;;;;12.60;7.70;;;;;;;9.42;81.74;99499.34;108095;1281;22026;-65
2024/01/05 04:48:27;;;;;;;14.10;8.20;;;;;;;9.41;81.81;99501.81;108272;1286;22023;-60
2024/01/05 04:50:53;;;;;;;12.20;7.40;;;;;;;9.40;81.98;99501.30;108169;1281;22024;-60
2024/01/05 04:53:19;;;;;;;14.90;8.70;;;;;;;9.38;82.00;99502.73;108072;1285;21981;-65
2024/01/05 04:55:44;;;;;;;15.40;8.60;;;;;;;9.34;82.37;99509.28;108268;1280;21985;-60
2024/01/05 04:58:10;;;;;;;14.10;8.60;;;;;;;9.33;82.23;99511.06;108090;1281;21977;-60
2024/01/05 05:00:35;;;;;;;14.10;8.30;;;;;;;9.33;82.03;99518.25;108091;1285;21989;-60
2024/01/05 05:03:01;;;;;;;13.60;8.50;;;;;;;9.30;81.88;99523.38;108100;1285;21979;-60
2024/01/05 05:05:26;;;;;;;12.30;7.50;;;;;;;9.24;82.26;99527.19;108067;1285;21998;-61
2024/01/05 05:07:52;;;;;;;17.20;8.60;;;;;;;9.20;82.17;99537.79;108082;1280;22023;-60
2024/01/05 05:10:18;;;;;;;14.80;8.40;;;;;;;9.16;81.98;99541.17;108198;1281;21991;-60
2024/01/05 05:12:43;;;;;;;11.50;7.30;;;;;;;9.13;81.91;99546.65;108142;1286;21986;-60
2024/01/05 05:15:10;;;;;;;13.30;7.80;;;;;;;9.09;81.82;99556.88;108226;1278;21991;-66
2024/01/05 05:17:36;;;;;;;13.40;8.30;;;;;;;9.04;81.63;99559.63;108082;1285;21986;-60
2024/01/05 05:20:03;;;;;;;14.60;8.00;;;;;;;9.00;81.54;99559.36;108032;1285;21990;-59
2024/01/05 05:22:29;;;;;;;15.60;8.60;;;;;;;8.96;81.53;99558.70;108067;1285;21989;-66
2024/01/05 05:24:55;;;;;;;14.00;7.60;;;;;;;8.91;81.49;99561.25;108008;1285;21989;-66
2024/01/05 05:27:20;;;;;;;15.00;8.60;;;;;;;8.85;81.72;99561.55;108130;1278;22097;-66
2024/01/05 05:29:49;;;;;;;12.80;8.10;;;;;;;8.83;81.93;99568.05;108100;1284;22030;-60
2024/01/05 05:32:14;;;;;;;12.60;7.40;;;;;;;8.82;82.11;99572.10;108115;1281;22026;-60
2024/01/05 05:34:41;;;;;;;12.50;8.40;;;;;;;8.79;82.26;99577.02;108239;1279;21989;-64
2024/01/05 05:37:06;;;;;;;14.90;7.90;;;;;;;8.78;81.96;99582.64;108244;1285;21986;-65
2024/01/05 05:39:32;;;;;;;11.40;7.40;;;;;;;8.74;81.79;99588.33;107552;1282;1003158;-65
2024/01/05 05:41:57;;;;;;;12.10;7.50;;;;;;;8.70;81.38;99593.28;108116;1284;22041;-65
2024/01/05 05:44:23;;;;;;;13.80;7.30;;;;;;;8.69;81.03;99600.65;108069;1286;21986;-65
2024/01/05 05:46:49;;;;;;;17.60;7.30;;;;;;;8.71;80.68;99604.46;108219;1285;22037;-65
2024/01/05 05:49:14;;;;;;;13.80;7.20;;;;;;;8.72;80.27;99611.80;108330;1284;22009;-62
2024/01/05 05:51:40;;;;;;;11.80;7.30;;;;;;;8.68;80.07;99617.27;108247;1281;21981;-60
2024/01/05 05:54:06;;;;;;;11.80;7.20;;;;;;;8.63;80.07;99622.44;108359;1286;21996;-64
2024/01/05 05:56:34;;;;;;;14.90;7.40;;;;;;;8.60;79.77;99625.11;108346;1278;21986;-60
2024/01/05 05:58:59;;;;;;;10.50;6.90;;;;;;;8.58;79.90;99626.02;108349;1285;22024;-59
2024/01/05 06:01:25;;;;;;;11.80;7.20;;;;;;;8.56;79.78;99633.58;108254;1285;23755;-66
2024/01/05 06:03:50;;;;;;;14.00;7.80;;;;;;;8.55;79.52;99630.61;108214;1281;21983;-64
2024/01/05 06:06:20;;;;;;;13.10;8.10;;;;;;;8.54;79.60;99628.36;108286;1285;21995;-66
2024/01/05 06:08:46;;;;;;;;;;;;;;;8.55;79.82;99633.94;108302;1280;22003;-66
2024/01/05 06:11:13;;;;;;;14.60;7.80;;;;;;;8.55;80.27;99636.21;108192;1285;21994;-62
2024/01/05 06:13:39;;;;;;;11.90;7.50;;;;;;;8.57;80.66;99639.32;108072;1280;21994;-62
2024/01/05 06:16:05;;;;;;;13.10;7.60;;;;;;;8.62;81.11;99642.56;108173;1285;21993;-62
2024/01/05 06:18:30;;;;;;;13.30;8.00;;;;;;;8.68;81.46;99647.02;108304;1285;21996;-61
2024/01/05 06:20:57;;;;;;;13.90;7.70;;;;;;;8.75;81.60;99651.80;108132;1281;21993;-61
2024/01/05 06:23:22;;;;;;;12.40;7.90;;;;;;;8.85;81.91;99653.91;108235;1285;22301;-62
2024/01/05 06:25:48;;;;;;;11.90;7.30;;;;;;;8.95;82.25;99655.32;108172;1285;21991;-61
2024/01/05 06:28:13;;;;;;;12.10;7.50;;;;;;;9.05;82.45;99653.39;108092;1284;22005;-64
2024/01/05 06:30:39;;;;;;;14.40;8.00;;;;;;;9.17;82.72;99655.64;108104;1282;22922;-61
2024/01/05 06:33:06;;;;;;;16.80;8.50;;;;;;;9.29;82.86;99654.73;108097;1285;21993;-66
2024/01/05 06:35:32;;;;;;;11.90;6.60;;;;;;;9.39;82.94;99655.23;108099;1285;21983;-61
2024/01/05 06:37:58;;;;;;;13.10;7.40;;;;;;;9.51;83.14;99655.34;108067;1281;21994;-65
2024/01/05 06:40:23;;;;;;;13.00;7.70;;;;;;;9.64;83.55;99653.34;108071;1285;22731;-65
2024/01/05 06:42:49;;;;;;;16.90;8.10;;;;;;;9.79;83.91;99653.56;108079;1286;22079;-61
2024/01/05 06:45:15;;;;;;;12.00;7.70;;;;;;;9.93;84.17;99655.55;108105;1285;21991;-62
2024/01/05 06:47:41;;;;;;;12.30;7.30;;;;;;;10.09;84.53;99657.49;108099;1285;21991;-61
2024/01/05 06:50:07;;;;;;;13.60;8.50;;;;;;;10.22;84.73;99662.64;108082;1281;21985;-65
2024/01/05 06:52:34;;;;;;;15.00;8.10;;;;;;;10.29;84.24;99668.46;108146;1282;21979;-65
2024/01/05 06:55:00;;;;;;;13.30;8.80;;;;;;;10.32;84.35;99664.70;108066;1285;22021;-65
2024/01/05 06:57:28;;;;;;;13.60;7.80;;;;;;;10.36;84.01;99667.08;108140;1281;21983;-64
2024/01/05 06:59:53;;;;;;;13.60;8.40;;;;;;;10.39;83.52;99672.10;108099;1285;21997;-64
2024/01/05 07:02:19;;;;;;;13.80;8.60;;;;;;;10.42;83.39;99678.70;108078;1285;21993;-64
2024/01/05 07:04:45;;;;;;;13.70;8.30;;;;;;;10.46;83.37;99677.91;108067;1284;21988;-65
2024/01/05 07:07:10;;;;;;;14.20;8.70;;;;;;;10.49;83.44;99683.99;108067;1285;21986;-64
2024/01/05 07:09:36;;;;;;;14.40;9.20;;;;;;;10.53;83.62;99688.29;108050;1286;21985;-65
2024/01/05 07:12:02;;;;;;;12.50;8.30;;;;;;;10.57;83.68;99689.23;108051;1286;22166;-64
2024/01/05 07:14:29;;;;;;;13.40;8.30;;;;;;;10.62;83.77;99689.65;108073;1286;22047;-64
2024/01/05 07:16:58;;;;;;;14.40;8.60;;;;;;;10.67;83.77;99689.53;108052;1286;21997;-64
2024/01/05 07:19:24;;;;;;;13.80;8.30;;;;;;;10.73;83.86;99697.83;108065;1285;23669;-64
2024/01/05 07:21:50;;;;;;;14.10;8.40;;;;;;;10.79;84.20;99707.00;108054;1281;21988;-66
2024/01/05 07:24:16;;;;;;;13.10;8.60;;;;;;;10.82;84.67;99709.89;108077;1276;22453;-65
2024/01/05 07:26:43;;;;;;;12.90;8.40;;;;;;;10.89;84.48;99706.23;108037;1285;21988;-64
2024/01/05 07:29:08;;;;;;;15.80;9.00;;;;;;;10.95;84.56;99707.84;108038;1285;21993;-64
2024/01/05 07:31:34;;;;;;;13.00;8.50;;;;;;;10.99;84.65;99719.48;108038;1284;22020;-64
2024/01/05 07:34:00;;;;;;;14.00;8.70;;;;;;;11.08;85.03;99728.92;108045;1285;21985;-60
2024/01/05 07:36:26;;;;;;;16.30;8.70;;;;;;;11.23;86.04;99740.16;108098;1278;21994;-62
2024/01/05 07:38:52;;;;;;;13.00;8.60;;;;;;;11.38;86.92;99747.85;108028;1285;21985;-65
2024/01/05 07:41:19;;;;;;;13.30;8.30;;;;;;;11.53;86.47;99748.70;108115;1285;21994;-64
2024/01/05 07:43:45;;;;;;;12.10;7.90;;;;;;;11.63;86.11;99748.60;108050;1285;21989;-60
2024/01/05 07:46:12;;;;;;;9.90;6.70;;;;;;;11.73;85.93;99746.76;108037;1284;21946;-65
2024/01/05 07:48:40;;;;;;;10.80;6.70;;;;;;;11.79;85.26;99745.52;108117;1285;22049;-63
2024/01/05 07:51:08;;;;;;;11.20;6.80;;;;;;;11.86;84.68;99751.30;108163;1285;22006;-62
2024/01/05 07:53:34;;;;;;;11.40;7.20;;;;;;;11.96;85.03;99753.52;108094;1285;21992;-65
2024/01/05 07:56:01;;;;;;;14.20;8.30;;;;;;;12.09;85.56;99760.73;108052;1285;21985;-65
2024/01/05 07:58:27;;;;;;;13.60;7.40;;;;;;;12.26;86.06;99765.88;108081;1285;21983;-60
2024/01/05 08:00:53;;;;;;;13.00;8.60;;;;;;;12.43;85.33;99768.20;108267;1285;21982;-65
2024/01/05 08:03:21;;;;;;;23.50;14.10;;;;;;;12.59;84.65;99766.68;108247;1285;21949;-60
2024/01/05 08:05:49;;;;;;;30.20;18.00;;;;;;;12.71;84.28;99772.45;108103;1281;22082;-65
2024/01/05 08:08:14;;;;;;;15.50;9.60;;;;;;;12.74;82.35;99792.61;108109;1285;21979;-62
2024/01/05 08:10:40;;;;;;;10.20;6.60;;;;;;;12.83;82.51;99831.62;108060;1285;21993;-61
2024/01/05 08:13:05;;;;;;;9.40;6.30;;;;;;;12.76;82.22;99842.89;108077;1285;21986;-61
2024/01/05 08:15:31;;;;;;;13.20;7.90;;;;;;;12.67;81.18;99834.20;108104;1277;22449;-60
2024/01/05 08:17:57;;;;;;;10.00;6.40;;;;;;;12.69;81.32;99841.00;108101;1285;21984;-60
2024/01/05 08:20:23;;;;;;;8.70;5.20;;;;;;;12.66;81.80;99835.98;108298;1284;21952;-62
2024/01/05 08:22:48;;;;;;;9.30;5.90;;;;;;;12.75;83.42;99838.73;108238;1284;21987;-61
2024/01/05 08:25:14;;;;;;;8.10;5.30;;;;;;;12.93;85.58;99833.23;104506;1282;1003083;-62
2024/01/05 08:27:40;;;;;;;7.90;4.80;;;;;;;13.14;87.59;99834.52;108217;1284;21992;-61
2024/01/05 08:30:07;;;;;;;6.60;4.20;;;;;;;13.39;87.76;99833.75;108217;1285;21988;-61
2024/01/05 08:32:33;;;;;;;6.40;3.90;;;;;;;13.61;88.26;99838.34;108166;1285;22024;-61
2024/01/05 08:34:59;;;;;;;7.40;4.40;;;;;;;13.77;87.32;99834.63;107565;1274;1002495;-60
2024/01/05 08:37:25;;;;;;;6.10;3.80;;;;;;;13.90;85.78;99829.61;108208;1285;21983;-60
2024/01/05 08:39:51;;;;;;;5.70;3.30;;;;;;;13.94;83.85;99831.59;108211;1282;21983;-59
2024/01/05 08:42:16;;;;;;;4.60;2.90;;;;;;;13.85;82.66;99838.42;108216;1285;21988;-60
2024/01/05 08:44:42;;;;;;;5.80;3.50;;;;;;;13.79;82.32;99836.51;108209;1278;21978;-61
2024/01/05 08:47:08;;;;;;;7.80;2.60;;;;;;;13.68;81.88;99844.12;108199;1285;22000;-61
2024/01/05 08:49:33;;;;;;;8.40;3.40;;;;;;;13.53;81.54;99856.75;108227;1273;21988;-62
2024/01/05 08:51:59;;;;;;;6.10;3.20;;;;;;;13.35;81.42;99865.94;108250;1284;21984;-61
2024/01/05 08:54:24;;;;;;;6.10;4.00;;;;;;;13.16;81.97;99874.09;108241;1282;21990;-61
2024/01/05 08:56:50;;;;;;;7.90;4.10;;;;;;;13.09;83.37;99885.06;108234;1279;21976;-61
2024/01/05 08:59:15;;;;;;;6.60;3.80;;;;;;;13.10;84.53;99890.30;108216;1285;21996;-59
2024/01/05 09:01:41;;;;;;;6.50;3.70;;;;;;;13.11;86.16;99900.13;108376;1284;21986;-59
2024/01/05 09:04:10;;;;;;;6.50;4.20;;;;;;;13.29;87.58;99903.46;108127;1285;21986;-61
2024/01/05 09:06:39;;;;;;;7.20;3.50;;;;;;;13.48;87.14;99908.54;108228;1273;21986;-60
2024/01/05 09:09:05;;;;;;;4.70;2.90;;;;;;;13.59;85.30;99907.14;108198;1285;23431;-62
2024/01/05 09:11:30;;;;;;;5.10;3.00;;;;;;;13.68;84.20;99907.73;108186;1275;22173;-61
2024/01/05 09:13:56;;;;;;;5.90;3.40;;;;;;;13.73;83.89;99898.75;108231;1284;22002;-61
2024/01/05 09:16:22;;;;;;;7.30;4.20;;;;;;;13.84;83.92;99899.80;108232;1285;21982;-60
2024/01/05 09:18:48;;;;;;;7.70;4.60;;;;;;;13.97;83.66;99900.06;108237;1285;22321;-60
2024/01/05 09:21:14;;;;;;;6.80;3.90;;;;;;;14.15;84.38;99904.94;108188;1283;21957;-62
2024/01/05 09:23:41;;;;;;;6.40;2.90;;;;;;;14.37;84.53;99904.70;108195;1274;22026;-61
2024/01/05 09:26:15;;;;;;;5.40;2.50;;;;;;;14.51;82.24;99905.08;108223;1285;22004;-60
2024/01/05 09:28:42;;;;;;;5.10;2.10;;;;;;;14.55;78.80;99904.92;108215;1285;22052;-61
2024/01/05 09:31:08;;;;;;;4.00;1.80;;;;;;;14.62;77.61;99914.92;108133;1282;21991;-60
2024/01/05 09:33:34;;;;;;;6.60;3.10;;;;;;;14.76;77.78;99916.94;108214;1285;21989;-62
2024/01/05 09:35:59;;;;;;;3.30;1.70;;;;;;;14.85;76.02;99925.09;108147;1283;21984;-62
2024/01/05 09:38:25;;;;;;;3.50;1.90;;;;;;;14.88;74.37;99927.11;107322;1285;1002456;-60
2024/01/05 09:40:52;;;;;;;3.70;1.80;;;;;;;14.91;74.11;99929.09;108143;1280;22020;-60
2024/01/05 09:43:21;;;;;;;4.70;1.60;;;;;;;15.09;74.88;99925.23;108172;1281;21989;-60
2024/01/05 09:45:48;;;;;;;2.90;1.50;;;;;;;15.34;75.18;99926.94;108117;1285;21998;-60
2024/01/05 09:48:14;;;;;;;2.60;1.00;;;;;;;15.27;68.25;99933.05;108123;1278;22003;-60
2024/01/05 09:50:40;;;;;;;2.20;1.00;;;;;;;14.99;62.80;99928.95;108108;1277;21991;-62
2024/01/05 09:53:09;;;;;;;3.00;1.10;;;;;;;14.79;62.41;99932.88;108106;1285;21988;-60
2024/01/05 09:55:36;;;;;;;2.70;1.20;;;;;;;14.86;65.43;99935.99;108081;1285;22046;-62
2024/01/05 09:58:04;;;;;;;2.90;1.40;;;;;;;14.95;65.31;99934.77;108157;1283;21986;-60
2024/01/05 10:00:29;;;;;;;2.20;1.20;;;;;;;14.96;64.32;99932.78;108146;1277;21986;-61
2024/01/05 10:02:58;;;;;;;4.50;1.30;;;;;;;15.06;65.87;99937.70;105831;1284;1003995;-60
2024/01/05 10:05:25;;;;;;;3.70;1.50;;;;;;;15.19;64.54;99940.25;108166;1285;21993;-60
2024/01/05 10:07:50;;;;;;;2.10;1.20;;;;;;;15.31;63.96;99941.37;108118;1285;21983;-60
2024/01/05 10:10:16;;;;;;;3.70;1.60;;;;;;;15.47;65.08;99935.27;108093;1284;21996;-62
2024/01/05 10:12:41;;;;;;;3.00;1.40;;;;;;;15.47;63.25;99932.60;108094;1284;21999;-60
2024/01/05 10:15:07;;;;;;;4.40;1.40;;;;;;;15.28;61.03;99940.09;108080;1275;21988;-60
2024/01/05 10:17:34;;;;;;;3.20;1.20;;;;;;;15.03;60.60;99942.80;108128;1273;22263;-61
2024/01/05 10:20:16;;;;;;;3.50;1.70;;;;;;;14.88;62.03;99945.45;108105;1284;22372;-60
2024/01/05 10:22:46;;;;;;;3.40;1.60;;;;;;;14.75;62.77;99948.95;108151;1285;21993;-60
2024/01/05 10:25:21;;;;;;;3.30;1.80;;;;;;;14.72;63.77;99954.66;108192;1273;22088;-61
2024/01/05 10:27:48;;;;;;;4.10;1.80;;;;;;;14.80;64.43;99952.27;108150;1285;21990;-61
2024/01/05 10:30:28;;;;;;;3.90;1.70;;;;;;;15.04;65.49;99950.35;108209;1279;22008;-61
2024/01/05 10:33:05;;;;;;;5.20;1.60;;;;;;;15.32;65.78;99948.91;108187;1283;21986;-61
2024/01/05 10:35:31;;;;;;;2.70;1.30;;;;;;;15.33;62.01;99949.40;108251;1283;23723;-62
2024/01/05 10:38:06;;;;;;;4.00;1.40;;;;;;;15.29;60.24;99946.56;108245;1285;21981;-60
2024/01/05 10:40:32;;;;;;;2.00;0.80;;;;;;;15.33;61.38;99945.52;108223;1280;22000;-62
2024/01/05 10:43:11;;;;;;;1.60;0.90;;;;;;;15.25;59.27;99951.67;108218;1285;21996;-62
2024/01/05 10:45:37;;;;;;;2.90;0.80;;;;;;;15.26;58.83;99953.40;108320;1277;21988;-63
2024/01/05 10:48:07;;;;;;;1.40;0.80;;;;;;;15.13;58.28;99962.19;108282;1280;23609;-61
2024/01/05 10:50:36;;;;;;;3.50;0.90;;;;;;;15.01;58.17;99960.52;108174;1274;21989;-59
2024/01/05 10:53:02;;;;;;;1.90;0.90;;;;;;;15.02;59.72;99955.52;108333;1274;23050;-60
2024/01/05 10:55:28;;;;;;;2.00;0.70;;;;;;;15.01;59.17;99955.02;108113;1285;23640;-61
2024/01/05 10:57:55;;;;;;;1.50;0.80;;;;;;;15.02;58.47;99959.06;108220;1285;21989;-61
2024/01/05 11:00:24;;;;;;;2.00;0.80;;;;;;;15.13;60.14;99954.78;108139;1285;22737;-62
2024/01/05 11:02:51;;;;;;;3.10;1.40;;;;;;;15.25;58.47;99954.49;108165;1285;21986;-59
2024/01/05 11:05:19;;;;;;;2.60;0.80;;;;;;;15.42;58.49;99968.67;108271;1285;23644;-60
2024/01/05 11:07:45;;;;;;;1.20;0.60;;;;;;;15.49;57.19;99973.56;108138;1285;21983;-61
2024/01/05 11:10:49;;;;;;;1.80;0.80;;;;;;;15.56;57.65;99981.61;108169;1285;21990;-59
2024/01/05 11:13:24;;;;;;;2.50;0.80;;;;;;;15.75;58.30;99984.23;108149;1285;21992;-61
2024/01/05 11:16:08;;;;;;;1.20;0.60;;;;;;;15.59;54.27;99991.55;108255;1281;21999;-61